createdAt,value
2023-02-11T00:01:26.979Z,6.11
2023-02-11T00:03:57.142Z,6.66
2023-02-11T00:06:25.091Z,6.46
2023-02-11T00:08:51.833Z,6.59
2023-02-11T00:11:20.330Z,6.54
2023-02-11T00:13:48.376Z,6.52
2023-02-11T00:16:20.626Z,6.45
2023-02-11T00:18:49.480Z,6.48
2023-02-11T00:21:27.231Z,6.35
2023-02-11T00:23:54.787Z,6.11
2023-02-11T00:26:23.892Z,6.36
2023-02-11T00:28:52.890Z,6.35
2023-02-11T00:31:22.600Z,6.31
2023-02-11T00:33:49.528Z,6.25
2023-02-11T00:36:19.152Z,6.31
2023-02-11T00:38:47.836Z,6.22
2023-02-11T00:41:14.988Z,6.28
2023-02-11T00:43:42.249Z,6.21
2023-02-11T00:46:09.640Z,6.24
2023-02-11T00:48:37.922Z,6.02
2023-02-11T00:51:05.131Z,6.01
2023-02-11T00:53:32.587Z,6.22
2023-02-11T00:55:59.398Z,5.57
2023-02-11T00:58:26.166Z,6.19
2023-02-11T01:00:53.769Z,6.15
2023-02-11T01:03:20.519Z,6.18
2023-02-11T01:05:49.342Z,5.27
2023-02-11T01:08:16.411Z,5.20
2023-02-11T01:10:43.090Z,5.97
2023-02-11T01:13:10.332Z,6.07
2023-02-11T01:15:37.439Z,6.03
2023-02-11T01:18:06.042Z,5.95
2023-02-11T01:20:33.322Z,6.03
2023-02-11T01:23:01.894Z,5.38
2023-02-11T01:25:31.601Z,6.02
2023-02-11T01:27:58.337Z,6.03
2023-02-11T01:30:25.236Z,6.07
2023-02-11T01:32:51.919Z,5.93
2023-02-11T01:35:19.182Z,6.07
2023-02-11T01:37:46.209Z,6.03
2023-02-11T01:40:17.316Z,6.02
2023-02-11T01:42:44.342Z,5.90
2023-02-11T01:45:57.173Z,5.99
2023-02-11T01:48:27.520Z,6.03
2023-02-11T01:51:01.191Z,6.02
2023-02-11T01:53:29.742Z,6.09
2023-02-11T01:55:58.954Z,6.15
2023-02-11T01:58:27.081Z,6.17
2023-02-11T02:00:54.650Z,6.20
2023-02-11T02:03:24.465Z,6.22
2023-02-11T02:05:59.111Z,6.19
2023-02-11T02:08:31.541Z,6.29
2023-02-11T02:11:00.044Z,6.26
2023-02-11T02:13:28.146Z,6.22
2023-02-11T02:15:56.790Z,6.32
2023-02-11T02:18:35.927Z,6.34
2023-02-11T02:21:53.520Z,6.30
2023-02-11T02:24:49.548Z,6.34
2023-02-11T02:27:29.582Z,6.35
2023-02-11T02:30:25.363Z,6.40
2023-02-11T02:33:07.973Z,6.39
2023-02-11T02:35:47.310Z,6.09
2023-02-11T02:38:19.189Z,6.42
2023-02-11T02:40:50.762Z,6.10
2023-02-11T02:43:18.422Z,6.44
2023-02-11T02:45:45.497Z,6.48
2023-02-11T02:48:26.573Z,6.21
2023-02-11T02:51:04.634Z,6.52
2023-02-11T02:53:45.675Z,6.36
2023-02-11T02:56:19.875Z,6.18
2023-02-11T02:58:59.804Z,6.58
2023-02-11T03:01:36.563Z,6.60
2023-02-11T03:04:17.452Z,6.59
2023-02-11T03:06:51.863Z,6.63
2023-02-11T03:09:26.168Z,6.58
2023-02-11T03:11:53.117Z,6.71
2023-02-11T03:14:22.082Z,6.69
2023-02-11T03:16:52.040Z,6.10
2023-02-11T03:19:24.187Z,6.75
2023-02-11T03:21:52.085Z,6.80
2023-02-11T03:24:24.785Z,6.82
2023-02-11T03:26:54.395Z,6.82
2023-02-11T03:29:30.992Z,6.87
2023-02-11T03:32:05.130Z,6.88
2023-02-11T03:34:40.145Z,6.92
2023-02-11T03:37:11.755Z,6.95
2023-02-11T03:39:44.212Z,6.58
2023-02-11T03:42:12.934Z,6.99
2023-02-11T03:44:45.028Z,6.91
2023-02-11T03:47:16.558Z,7.07
2023-02-11T03:49:46.536Z,7.06
2023-02-11T03:52:15.840Z,7.04
2023-02-11T03:54:48.154Z,7.12
2023-02-11T03:57:15.215Z,7.16
2023-02-11T04:00:00.119Z,7.14
2023-02-11T04:02:31.880Z,7.08
2023-02-11T04:05:00.248Z,6.33
2023-02-11T04:07:27.840Z,7.06
2023-02-11T04:09:56.115Z,7.28
2023-02-11T04:12:22.984Z,7.29
2023-02-11T04:14:49.792Z,7.31
2023-02-11T04:17:16.592Z,7.26
2023-02-11T04:19:43.320Z,7.39
2023-02-11T04:22:11.450Z,7.40
2023-02-11T04:24:38.373Z,7.07
2023-02-11T04:27:05.281Z,7.32
2023-02-11T04:29:32.120Z,7.34
2023-02-11T04:31:58.925Z,7.37
2023-02-11T04:34:26.026Z,7.32
2023-02-11T04:36:52.797Z,7.54
2023-02-11T04:39:21.007Z,7.54
2023-02-11T04:41:47.805Z,7.14
2023-02-11T04:44:17.042Z,7.50
2023-02-11T04:46:45.721Z,7.53
2023-02-11T04:49:13.558Z,7.59
2023-02-11T04:51:40.683Z,7.20
2023-02-11T04:54:07.763Z,7.44
2023-02-11T04:56:35.836Z,7.56
2023-02-11T04:59:02.854Z,7.53
2023-02-11T05:01:31.038Z,7.71
2023-02-11T05:03:58.143Z,7.49
2023-02-11T05:06:25.262Z,7.68
2023-02-11T05:08:51.998Z,7.74
2023-02-11T05:11:20.639Z,7.78
2023-02-11T05:13:48.957Z,7.76
2023-02-11T05:16:16.930Z,7.76
2023-02-11T05:18:44.929Z,7.60
2023-02-11T05:21:14.289Z,7.82
2023-02-11T05:23:41.188Z,7.77
2023-02-11T05:26:08.949Z,7.37
2023-02-11T05:28:35.985Z,7.53
2023-02-11T05:31:04.808Z,7.86
2023-02-11T05:33:31.901Z,7.79
2023-02-11T05:35:59.250Z,7.88
2023-02-11T05:38:26.156Z,7.70
2023-02-11T05:40:52.927Z,7.72
2023-02-11T05:43:19.840Z,7.80
2023-02-11T05:45:46.697Z,7.87
2023-02-11T05:48:15.661Z,7.63
2023-02-11T05:50:42.806Z,7.67
2023-02-11T05:53:09.617Z,7.20
2023-02-11T05:55:36.801Z,7.88
2023-02-11T05:58:03.830Z,7.74
2023-02-11T06:00:33.070Z,7.88
2023-02-11T06:03:00.385Z,7.89
2023-02-11T06:05:28.654Z,7.89
2023-02-11T06:07:55.464Z,7.86
2023-02-11T06:10:22.595Z,7.90
2023-02-11T06:12:49.381Z,7.84
2023-02-11T06:15:16.518Z,7.88
2023-02-11T06:17:43.211Z,7.84
2023-02-11T06:20:11.029Z,7.78
2023-02-11T06:22:39.174Z,7.84
2023-02-11T06:25:06.642Z,7.81
2023-02-11T06:27:33.421Z,7.39
2023-02-11T06:30:00.542Z,7.78
2023-02-11T06:32:45.210Z,7.76
2023-02-11T06:35:13.567Z,7.71
2023-02-11T06:37:42.298Z,7.69
2023-02-11T06:40:09.905Z,7.61
2023-02-11T06:42:37.587Z,7.02
2023-02-11T06:45:04.837Z,7.59
2023-02-11T06:47:32.196Z,7.57
2023-02-11T06:50:01.871Z,7.55
2023-02-11T06:52:28.739Z,6.97
2023-02-11T06:54:56.912Z,7.55
2023-02-11T06:57:23.940Z,7.55
2023-02-11T06:59:51.015Z,7.52
2023-02-11T07:02:20.645Z,7.39
2023-02-11T07:04:48.038Z,7.47
2023-02-11T07:07:15.292Z,6.85
2023-02-11T07:09:42.245Z,7.53
2023-02-11T07:12:10.982Z,7.53
2023-02-11T07:14:39.502Z,7.55
2023-02-11T07:17:06.220Z,7.45
2023-02-11T07:19:34.228Z,7.56
2023-02-11T07:22:02.855Z,7.56
2023-02-11T07:24:29.624Z,7.57
2023-02-11T07:26:56.495Z,7.58
2023-02-11T07:29:24.640Z,7.46
2023-02-11T07:31:51.488Z,7.59
2023-02-11T07:34:18.597Z,7.59
2023-02-11T07:36:46.269Z,7.59
2023-02-11T07:39:13.126Z,7.56
2023-02-11T07:41:41.132Z,7.59
2023-02-11T07:44:07.952Z,7.61
2023-02-11T07:46:36.207Z,7.22
2023-02-11T07:49:03.416Z,6.68
2023-02-11T07:51:30.990Z,6.65
2023-02-11T07:54:00.110Z,7.57
2023-02-11T07:56:28.727Z,6.95
2023-02-11T07:58:56.815Z,7.57
2023-02-11T08:01:25.517Z,7.58
2023-02-11T08:03:55.064Z,7.35
2023-02-11T08:06:24.374Z,7.57
2023-02-11T08:08:51.638Z,7.57
2023-02-11T08:11:20.858Z,7.53
2023-02-11T08:13:48.372Z,7.45
2023-02-11T08:16:19.652Z,7.48
2023-02-11T08:18:46.970Z,7.54
2023-02-11T08:21:16.358Z,7.58
2023-02-11T08:23:44.960Z,7.39
2023-02-11T08:26:13.452Z,7.62
2023-02-11T08:28:42.457Z,7.59
2023-02-11T08:31:11.292Z,7.50
2023-02-11T08:33:38.758Z,7.62
2023-02-11T08:36:08.752Z,7.32
2023-02-11T08:38:37.754Z,7.03
2023-02-11T08:41:05.218Z,7.15
2023-02-11T08:43:32.167Z,7.69
2023-02-11T08:46:01.877Z,7.30
2023-02-11T08:48:30.246Z,7.82
2023-02-11T08:50:58.329Z,7.33
2023-02-11T08:53:27.785Z,7.44
2023-02-11T08:55:58.372Z,7.83
2023-02-11T08:58:27.811Z,7.93
2023-02-11T09:00:55.219Z,8.02
2023-02-11T09:03:22.055Z,8.07
2023-02-11T09:05:50.076Z,8.20
2023-02-11T09:08:18.091Z,8.27
2023-02-11T09:10:44.909Z,7.94
2023-02-11T09:13:13.260Z,8.42
2023-02-11T09:15:40.330Z,8.47
2023-02-11T09:18:07.084Z,8.51
2023-02-11T09:20:33.964Z,8.18
2023-02-11T09:23:02.106Z,8.63
2023-02-11T09:25:29.006Z,8.20
2023-02-11T09:27:55.860Z,8.45
2023-02-11T09:30:24.429Z,8.76
2023-02-11T09:32:51.200Z,7.69
2023-02-11T09:35:18.540Z,8.39
2023-02-11T09:37:45.809Z,8.83
2023-02-11T09:40:14.413Z,8.30
2023-02-11T09:42:46.707Z,8.87
2023-02-11T09:45:19.402Z,8.98
2023-02-11T09:47:53.960Z,9.04
2023-02-11T09:50:29.361Z,9.12
2023-02-11T09:53:00.570Z,9.05
2023-02-11T09:55:29.757Z,9.21
2023-02-11T09:57:57.965Z,9.11
2023-02-11T10:00:30.948Z,8.82
2023-02-11T10:03:24.375Z,9.18
2023-02-11T10:06:09.744Z,9.34
2023-02-11T10:08:46.707Z,9.13
2023-02-11T10:11:31.342Z,9.25
2023-02-11T10:14:07.457Z,9.52
2023-02-11T10:16:51.619Z,9.50
2023-02-11T10:19:43.509Z,9.55
2023-02-11T10:22:14.926Z,9.57
2023-02-11T10:24:43.587Z,9.55
2023-02-11T10:27:17.774Z,9.65
2023-02-11T10:29:49.284Z,9.52
2023-02-11T10:32:27.741Z,9.56
2023-02-11T10:34:59.194Z,9.02
2023-02-11T10:37:25.986Z,9.92
2023-02-11T10:39:53.128Z,9.37
2023-02-11T10:42:21.464Z,9.60
2023-02-11T10:44:57.686Z,10.02
2023-02-11T10:47:31.576Z,10.17
2023-02-11T10:50:22.580Z,10.19
2023-02-11T10:52:50.186Z,10.08
2023-02-11T10:55:19.275Z,10.24
2023-02-11T10:57:53.058Z,9.60
2023-02-11T11:00:29.225Z,10.33
2023-02-11T11:02:58.511Z,10.40
2023-02-11T11:05:31.673Z,10.33
2023-02-11T11:08:00.500Z,10.45
2023-02-11T11:10:46.721Z,10.47
2023-02-11T11:13:38.302Z,9.38
2023-02-11T11:16:30.536Z,9.52
2023-02-11T11:19:24.394Z,9.60
2023-02-11T11:22:01.185Z,9.63
2023-02-11T11:24:41.909Z,10.65
2023-02-11T11:27:18.443Z,9.42
2023-02-11T11:29:53.225Z,9.53
2023-02-11T11:32:40.445Z,10.49
2023-02-11T11:35:24.084Z,10.35
2023-02-11T11:38:15.865Z,9.44
2023-02-11T11:41:03.751Z,9.37
2023-02-11T11:43:38.377Z,10.43
2023-02-11T11:46:05.893Z,10.04
2023-02-11T11:48:55.503Z,9.16
2023-02-11T11:51:30.135Z,10.39
2023-02-11T11:54:08.853Z,9.76
2023-02-11T11:56:41.995Z,9.83
2023-02-11T11:59:13.221Z,9.34
2023-02-11T12:02:00.424Z,9.66
2023-02-11T12:05:03.346Z,9.15
2023-02-11T12:07:59.107Z,10.17
2023-02-11T12:14:03.595Z,9.24
2023-02-11T12:16:53.791Z,9.75
2023-02-11T12:19:59.455Z,10.08
2023-02-11T12:22:59.016Z,10.51
2023-02-11T12:25:36.964Z,9.67
2023-02-11T12:28:23.818Z,9.72
2023-02-11T12:31:13.280Z,9.72
2023-02-11T12:34:28.500Z,10.29
2023-02-11T12:37:26.086Z,10.62
2023-02-11T12:40:07.349Z,10.67
2023-02-11T12:42:52.095Z,10.28
2023-02-11T12:45:45.176Z,10.70
2023-02-11T12:48:48.436Z,10.42
2023-02-11T13:01:43.463Z,10.28
2023-02-11T13:13:33.228Z,11.05
2023-02-11T13:19:19.039Z,11.12
2023-02-11T13:22:16.099Z,11.33
2023-02-11T13:24:47.141Z,11.07
2023-02-11T13:27:29.065Z,11.29
2023-02-11T13:30:24.190Z,11.53
2023-02-11T13:33:19.592Z,11.12
2023-02-11T13:36:11.308Z,11.26
2023-02-11T13:38:38.718Z,11.59
2023-02-11T13:41:16.335Z,11.51
2023-02-11T13:43:58.293Z,11.17
2023-02-11T13:46:48.078Z,10.33
2023-02-11T13:49:25.367Z,10.61
2023-02-11T13:51:58.517Z,10.73
2023-02-11T13:54:36.442Z,10.53
2023-02-11T13:57:35.486Z,10.78
2023-02-11T14:00:28.321Z,10.49
2023-02-11T14:03:26.590Z,10.94
2023-02-11T14:06:17.773Z,10.31
2023-02-11T14:09:14.967Z,10.99
2023-02-11T14:11:50.858Z,10.57
2023-02-11T14:14:22.736Z,10.55
2023-02-11T14:17:26.956Z,10.09
2023-02-11T14:20:06.874Z,10.83
2023-02-11T14:22:52.578Z,10.45
2023-02-11T14:25:26.224Z,11.15
2023-02-11T14:28:01.460Z,11.19
2023-02-11T14:31:02.176Z,10.90
2023-02-11T14:33:51.651Z,11.01
2023-02-11T14:36:46.421Z,11.06
2023-02-11T14:39:34.825Z,10.84
2023-02-11T14:42:05.337Z,10.08
2023-02-11T14:44:38.318Z,10.84
2023-02-11T14:47:08.214Z,10.20
2023-02-11T14:49:45.448Z,10.46
2023-02-11T14:52:26.653Z,10.70
2023-02-11T14:55:05.124Z,9.69
2023-02-11T14:57:32.111Z,10.14
2023-02-11T15:00:04.022Z,10.34
2023-02-11T15:02:35.054Z,10.30
2023-02-11T15:05:28.389Z,9.78
2023-02-11T15:08:18.390Z,9.40
2023-02-11T15:10:47.438Z,10.42
2023-02-11T15:13:20.103Z,9.57
2023-02-11T15:15:53.966Z,9.89
2023-02-11T15:18:33.606Z,10.14
2023-02-11T15:21:00.895Z,10.23
2023-02-11T15:23:31.646Z,9.63
2023-02-11T15:26:04.578Z,9.93
2023-02-11T15:28:48.248Z,10.02
2023-02-11T15:31:25.648Z,10.46
2023-02-11T15:37:11.057Z,9.18
2023-02-11T15:40:05.289Z,9.07
2023-02-11T15:42:44.047Z,10.19
2023-02-11T15:45:57.008Z,10.15
2023-02-11T15:51:31.346Z,9.88
2023-02-11T15:54:06.235Z,9.85
2023-02-11T15:59:56.015Z,8.76
2023-02-11T16:03:29.547Z,8.65
2023-02-11T16:10:22.656Z,9.26
2023-02-11T16:13:38.402Z,8.48
2023-02-11T16:16:36.617Z,9.20
2023-02-11T16:22:28.299Z,9.16
2023-02-11T16:28:27.582Z,8.58
2023-02-11T16:31:09.386Z,9.28
2023-02-11T16:34:30.783Z,9.54
2023-02-11T16:37:08.488Z,8.35
2023-02-11T16:39:42.622Z,8.99
2023-02-11T16:45:47.846Z,8.25
2023-02-11T16:55:28.442Z,8.17
2023-02-11T16:58:41.404Z,8.18
2023-02-11T17:07:43.101Z,8.72
2023-02-11T17:10:16.399Z,8.04
2023-02-11T17:12:44.774Z,8.53
2023-02-11T17:15:14.444Z,8.79
2023-02-11T17:17:46.844Z,9.04
2023-02-11T17:20:39.358Z,8.45
2023-02-11T17:23:14.888Z,9.13
2023-02-11T17:25:41.662Z,8.09
2023-02-11T17:28:13.436Z,7.96
2023-02-11T17:30:48.901Z,8.08
2023-02-11T17:33:17.112Z,8.56
2023-02-11T17:35:53.078Z,7.94
2023-02-11T17:38:25.799Z,7.80
2023-02-11T17:41:09.290Z,8.28
2023-02-11T17:43:44.729Z,8.48
2023-02-11T17:46:17.083Z,7.78
2023-02-11T17:48:53.415Z,7.82
2023-02-11T17:51:39.761Z,8.18
2023-02-11T17:54:10.628Z,8.61
2023-02-11T17:56:42.547Z,8.28
2023-02-11T17:59:14.584Z,8.56
2023-02-11T18:01:45.621Z,8.54
2023-02-11T18:04:24.790Z,8.60
2023-02-11T18:06:54.638Z,8.08
2023-02-11T18:09:34.963Z,7.63
2023-02-11T18:12:46.196Z,8.75
2023-02-11T18:15:19.020Z,8.45
2023-02-11T18:17:50.504Z,7.89
2023-02-11T18:20:20.260Z,8.68
2023-02-11T18:22:47.800Z,7.81
2023-02-11T18:25:18.109Z,7.95
2023-02-11T18:27:45.830Z,7.46
2023-02-11T18:30:20.613Z,8.15
2023-02-11T18:32:49.251Z,7.91
2023-02-11T18:35:16.708Z,8.37
2023-02-11T18:37:43.659Z,8.57
2023-02-11T18:40:16.481Z,7.42
2023-02-11T18:42:55.479Z,7.75
2023-02-11T18:45:32.043Z,7.96
2023-02-11T18:48:01.722Z,7.10
2023-02-11T18:50:32.520Z,7.82
2023-02-11T18:53:09.719Z,7.73
2023-02-11T18:59:15.217Z,6.82
2023-02-11T19:02:03.391Z,8.04
2023-02-11T19:04:48.398Z,7.60
2023-02-11T19:07:22.061Z,7.48
2023-02-11T19:10:02.781Z,7.63
2023-02-11T19:12:34.478Z,7.58
2023-02-11T19:15:19.490Z,7.52
2023-02-11T19:17:59.280Z,6.57
2023-02-11T19:20:26.480Z,6.48
2023-02-11T19:23:00.963Z,6.97
2023-02-11T19:25:32.936Z,7.62
2023-02-11T19:28:15.456Z,7.06
2023-02-11T19:30:48.370Z,6.53
2023-02-11T19:33:19.374Z,6.95
2023-02-11T19:35:49.518Z,7.03
2023-02-11T19:38:16.585Z,7.49
2023-02-11T19:40:43.429Z,6.47
2023-02-11T19:43:12.470Z,6.59
2023-02-11T19:45:39.325Z,7.04
2023-02-11T19:48:06.218Z,6.17
2023-02-11T19:50:34.961Z,7.34
2023-02-11T19:53:04.366Z,6.84
2023-02-11T19:55:34.154Z,6.87
2023-02-11T19:58:01.199Z,6.55
2023-02-11T20:00:28.537Z,6.68
2023-02-11T20:02:55.675Z,7.21
2023-02-11T20:05:22.611Z,7.17
2023-02-11T20:07:50.895Z,6.87
2023-02-11T20:10:17.895Z,6.85
2023-02-11T20:12:45.861Z,5.91
2023-02-11T20:15:12.908Z,6.93
2023-02-11T20:17:41.163Z,6.59
2023-02-11T20:20:11.152Z,5.68
2023-02-11T20:22:38.222Z,6.07
2023-02-11T20:25:07.730Z,6.35
2023-02-11T20:27:37.456Z,7.04
2023-02-11T20:30:07.171Z,5.71
2023-02-11T20:32:39.146Z,5.72
2023-02-11T20:35:08.489Z,5.69
2023-02-11T20:37:38.686Z,5.55
2023-02-11T20:40:15.177Z,6.70
2023-02-11T20:42:42.096Z,6.74
2023-02-11T20:45:12.107Z,6.26
2023-02-11T20:47:53.349Z,6.77
2023-02-11T20:50:24.457Z,5.38
2023-02-11T20:52:51.500Z,6.68
2023-02-11T20:55:27.135Z,6.42
2023-02-11T20:57:58.648Z,6.29
2023-02-11T21:00:26.409Z,5.32
2023-02-11T21:02:58.238Z,6.54
2023-02-11T21:05:26.669Z,6.19
2023-02-11T21:07:54.177Z,6.02
2023-02-11T21:10:22.721Z,6.44
2023-02-11T21:12:50.050Z,6.44
2023-02-11T21:15:18.221Z,5.26
2023-02-11T21:17:45.360Z,5.80
2023-02-11T21:20:16.403Z,5.89
2023-02-11T21:22:46.134Z,5.12
2023-02-11T21:25:13.058Z,6.19
2023-02-11T21:27:42.278Z,5.16
2023-02-11T21:30:09.980Z,6.30
2023-02-11T21:32:36.829Z,5.22
2023-02-11T21:35:03.676Z,5.21
2023-02-11T21:37:30.509Z,6.15
2023-02-11T21:39:57.675Z,5.18
2023-02-11T21:42:24.820Z,6.09
2023-02-11T21:44:53.658Z,6.24
2023-02-11T21:47:20.479Z,4.78
2023-02-11T21:49:47.342Z,5.42
2023-02-11T21:52:16.688Z,6.20
2023-02-11T21:54:44.822Z,5.53
2023-02-11T21:57:11.857Z,5.50
2023-02-11T21:59:38.633Z,6.17
2023-02-11T22:02:07.070Z,5.06
2023-02-11T22:04:34.006Z,6.14
2023-02-11T22:07:00.842Z,5.05
2023-02-11T22:09:27.623Z,6.15
2023-02-11T22:11:54.678Z,6.01
2023-02-11T22:14:22.018Z,5.36
2023-02-11T22:16:53.659Z,4.88
2023-02-11T22:19:22.698Z,6.04
2023-02-11T22:21:49.650Z,5.01
2023-02-11T22:24:16.359Z,5.38
2023-02-11T22:26:43.271Z,5.63
2023-02-11T22:29:10.134Z,6.02
2023-02-11T22:31:37.365Z,5.53
2023-02-11T22:34:05.563Z,5.23
2023-02-11T22:36:36.742Z,5.42
2023-02-11T22:39:05.693Z,5.32
2023-02-11T22:41:35.660Z,5.31
2023-02-11T22:44:02.701Z,5.26
2023-02-11T22:46:29.674Z,5.68
2023-02-11T22:48:56.966Z,4.78
2023-02-11T22:51:25.282Z,5.40
2023-02-11T22:53:55.842Z,5.73
2023-02-11T22:56:24.017Z,5.52
2023-02-11T22:58:51.946Z,5.49
2023-02-11T23:01:19.796Z,5.70
2023-02-11T23:03:46.739Z,5.68
2023-02-11T23:06:16.713Z,5.70
2023-02-11T23:08:43.981Z,5.44
2023-02-11T23:11:15.940Z,5.72
2023-02-11T23:13:44.806Z,5.73
2023-02-11T23:16:14.616Z,4.35
2023-02-11T23:18:43.429Z,5.68
2023-02-11T23:21:12.872Z,5.73
2023-02-11T23:23:40.298Z,5.60
2023-02-11T23:26:10.478Z,5.64
2023-02-11T23:28:39.051Z,5.44
2023-02-11T23:31:14.056Z,5.76
2023-02-11T23:33:41.780Z,5.78
2023-02-11T23:36:09.251Z,5.57
2023-02-11T23:38:36.264Z,5.80
2023-02-11T23:41:03.781Z,5.82
2023-02-11T23:43:32.290Z,5.24
2023-02-11T23:46:00.782Z,5.42
2023-02-11T23:48:28.378Z,5.80
2023-02-11T23:50:55.284Z,5.62
2023-02-11T23:53:22.063Z,5.73
2023-02-11T23:55:49.423Z,5.43
2023-02-11T23:58:16.448Z,4.76
